Siegerland, Germania

01:55 AM CEST die 01o October, anno 2014 (GMT +0200)
Deuz, Siegerland, NRW, Germany | Change Station
CLOSE
Current Station
Personal Weather Stations
Location: Netphen, NORDRHEIN-WESTFALEN
Elevation: 1079 ft
Nearby Weather Stations

Elev 1079 ft 50.89 °N, 8.14 °E | Updated 36 seconds ago

Overcast
Aequaliter Nubila
54.3 °F
Feels Like 54.3 °F
N
0.0
Ventus Variabilis Ventus from Inter Aquilonem et Eurum
Gusts 0.0 mph

Hodie
High -- | Low -- °F
--% Chance of Precip.
Yesterday
High -- | Low -- °F
Precip. -- in
7:27 AM 7:06 PM
Waxing Crescent, 41% visible
Pressio 30.30 in
Visibilitas 6.2 milia passuum
Clouds Aequaliter Nubila 10000 ft
Frigus in quo Ros apparet 54 °F
Umor 99%
Rainfall 0.00 in
Snow Depth Not available.
UV 0 out of 12
Pollen Not available.
Air Quality Not available.
Flu Activity Not available.
METAR ETOU 302258Z AUTO 01002KT 9999 OVC100 15/14 A3030 RMK AO2 VIS 4000 RWY07 SLP260 T01490144 402120142 $

More Conditions Fewer Conditions

Pressio 30.30 in
Visibilitas 6.2 milia passuum
Clouds Aequaliter Nubila 10000 ft
Frigus in quo Ros apparet 54 °F
Umor 99%
Rainfall 0.00 in
Snow Depth Not available.
UV 0 out of 12
Pollen Not available.
Air Quality Not available.
Flu Activity Not available.
METAR ETOU 302258Z AUTO 01002KT 9999 OVC100 15/14 A3030 RMK AO2 VIS 4000 RWY07 SLP260 T01490144 402120142 $

More Conditions Fewer Conditions

10-Day Weather Forecast

Almanac

Astronomy

Oct. 01, 2014 Rise Set
Actual Time 7:27 AM CEST 7:06 PM CEST
Civil Twilight 6:54 AM CEST 7:38 PM CEST
Nautical Twilight 6:16 AM CEST 8:16 PM CEST
Astronomical Twilight 5:37 AM CEST 8:55 PM CEST
Moon 2:42 PM CEST (10/1) 11:53 PM CEST (10/1)
Length Of Visible Light 12h 43m
Length of Day
11h 38m
Tomorrow will be 3m 48s shorter.
Waxing Crescent, 41% of the Moon is Illuminated
Sep 30
Waxing Crescent
Oct 1
First Quarter
Oct 8
Full
Oct 15
Last Quarter
Oct 23
New

Yesterday's Extremes

Country Highs Country Lows

Community

WunderPhotos

Upload Photos

1,757,785 photos uploaded!

Nearby

Snow Depth

Not available.

Earthquake Activity

City Distance Mag. Time & Date
No recent earthquake activity has been reported nearby.
Minimum magnitude displayed is 2.5.

Coastal Water Temperatures

Locus Calor
No Stations Reporting

Nearby Weather Stations